Time;durP1;ratioP1;P1;durP2;ratioP2;P2;SDS_P1;SDS_P2;PMS_P1;PMS_P2;Temp;Humidity;BMP_temperature;BMP_pressure;BME280_temperature;BME280_humidity;BME280_pressure;Samples;Min_cycle;Max_cycle;Signal;HPM_P1;HPM_P2
2022/09/29 00:00:44;;;;;;;3.53;0.80;;;19.20;71.10;;;;;;4961941;28;20054;-59
2022/09/29 00:03:09;;;;;;;2.72;0.70;;;19.20;71.00;;;;;;4969228;28;20059;-58
2022/09/29 00:05:35;;;;;;;2.13;0.63;;;19.20;71.30;;;;;;4965034;28;20495;-58
2022/09/29 00:08:01;;;;;;;1.88;0.70;;;19.20;71.00;;;;;;4965552;28;20066;-58
2022/09/29 00:10:26;;;;;;;1.65;0.50;;;19.20;71.10;;;;;;4963646;28;20422;-58
2022/09/29 00:12:52;;;;;;;2.63;0.68;;;19.20;71.20;;;;;;4961958;28;20456;-58
2022/09/29 00:15:17;;;;;;;1.35;0.55;;;19.20;71.00;;;;;;4966745;28;20574;-59
2022/09/29 00:17:43;;;;;;;2.35;0.77;;;19.20;71.00;;;;;;4963792;28;20027;-59
2022/09/29 00:20:09;;;;;;;1.98;0.50;;;19.20;71.00;;;;;;4964099;28;20097;-58
2022/09/29 00:22:34;;;;;;;1.52;0.63;;;19.20;71.00;;;;;;4968698;28;20050;-59
2022/09/29 00:25:00;;;;;;;2.75;0.88;;;19.20;71.00;;;;;;4964942;28;20514;-58
2022/09/29 00:27:26;;;;;;;2.15;0.50;;;19.10;70.90;;;;;;4964483;28;20034;-58
2022/09/29 00:29:51;;;;;;;3.05;0.82;;;19.10;70.90;;;;;;4915474;28;1448511;-58
2022/09/29 00:32:17;;;;;;;3.80;0.60;;;19.10;71.00;;;;;;4968305;28;20033;-59
2022/09/29 00:34:43;;;;;;;1.92;0.50;;;19.10;71.00;;;;;;4962171;28;20395;-58
2022/09/29 00:37:08;;;;;;;1.75;0.50;;;19.10;70.90;;;;;;4968395;28;20031;-58
2022/09/29 00:39:34;;;;;;;3.38;0.70;;;19.10;70.90;;;;;;4966955;28;20502;-59
2022/09/29 00:42:00;;;;;;;4.32;0.88;;;19.10;70.90;;;;;;4962213;28;20037;-58
2022/09/29 00:45:14;;;;;;;2.58;0.73;;;19.10;71.00;;;;;;4964667;28;20805;-58
2022/09/29 00:47:41;;;;;;;1.00;0.70;;;19.10;70.90;;;;;;4972731;28;20066;-58
2022/09/29 00:50:39;;;;;;;1.73;0.52;;;19.10;70.90;;;;;;4967314;28;20119;-59
2022/09/29 00:53:10;;;;;;;2.70;0.65;;;19.10;70.90;;;;;;4960274;28;20392;-59
2022/09/29 00:55:40;;;;;;;1.20;0.55;;;19.10;70.90;;;;;;4967517;28;20026;-58
2022/09/29 00:58:10;;;;;;;1.52;0.75;;;19.10;70.90;;;;;;4964964;28;20027;-58
2022/09/29 01:00:36;;;;;;;1.20;0.60;;;19.10;70.90;;;;;;4946301;28;20031;-59
2022/09/29 01:03:04;;;;;;;2.08;0.60;;;19.10;70.90;;;;;;4962729;28;20031;-58
2022/09/29 01:05:33;;;;;;;2.30;0.70;;;19.00;70.80;;;;;;4963384;28;20523;-59
2022/09/29 01:08:15;;;;;;;1.05;0.40;;;19.00;70.80;;;;;;4966122;28;20026;-58
2022/09/29 01:10:40;;;;;;;1.88;0.65;;;19.00;70.80;;;;;;4964387;28;20165;-59
2022/09/29 01:13:06;;;;;;;1.08;0.50;;;19.00;70.80;;;;;;4969952;28;20122;-59
2022/09/29 01:15:32;;;;;;;2.10;0.60;;;19.00;70.80;;;;;;4960883;28;20026;-58
2022/09/29 01:17:57;;;;;;;1.67;0.60;;;19.00;70.80;;;;;;4964882;28;20031;-58
2022/09/29 01:20:23;;;;;;;0.57;0.50;;;19.00;70.80;;;;;;4949756;28;20043;-58
2022/09/29 01:22:49;;;;;;;3.05;0.65;;;19.00;70.70;;;;;;4943955;28;20031;-58
2022/09/29 01:25:36;;;;;;;1.88;0.77;;;19.00;70.70;;;;;;4958588;28;20071;-58
2022/09/29 01:28:26;;;;;;;2.33;0.60;;;19.00;70.80;;;;;;4963727;28;20057;-58
2022/09/29 01:31:07;;;;;;;2.30;0.50;;;19.00;70.70;;;;;;4966398;28;20058;-58
2022/09/29 01:33:45;;;;;;;1.77;0.50;;;19.00;70.70;;;;;;4964684;28;20384;-58
2022/09/29 01:36:13;;;;;;;2.05;0.80;;;19.00;70.80;;;;;;4967946;28;20487;-58
2022/09/29 01:38:51;;;;;;;1.60;0.50;;;19.00;70.70;;;;;;4962464;28;20515;-58
2022/09/29 01:41:38;;;;;;;1.27;0.70;;;18.90;70.60;;;;;;4960084;28;20034;-58
2022/09/29 01:44:08;;;;;;;3.10;0.65;;;19.00;70.70;;;;;;4961195;28;20039;-58
2022/09/29 01:46:59;;;;;;;4.25;0.60;;;18.90;70.60;;;;;;4948568;28;20030;-58
2022/09/29 01:49:27;;;;;;;0.82;0.52;;;18.90;70.60;;;;;;4962694;28;20042;-58
2022/09/29 01:51:56;;;;;;;1.40;0.50;;;19.00;71.70;;;;;;4944295;28;20030;-58
2022/09/29 01:54:35;;;;;;;2.00;0.73;;;18.90;70.60;;;;;;4962862;28;20027;-59
2022/09/29 01:57:06;;;;;;;1.58;0.47;;;18.90;70.60;;;;;;4958461;28;20402;-58
2022/09/29 01:59:50;;;;;;;1.55;0.50;;;18.90;70.70;;;;;;4944129;28;20515;-58
2022/09/29 02:02:26;;;;;;;2.28;0.50;;;18.90;70.60;;;;;;4950448;28;20074;-58
2022/09/29 02:04:53;;;;;;;1.65;0.45;;;18.90;70.60;;;;;;4963609;28;20171;-58
2022/09/29 02:07:37;;;;;;;1.75;0.50;;;18.90;70.60;;;;;;4946573;28;20179;-58
2022/09/29 02:10:19;;;;;;;1.58;0.57;;;18.90;70.60;;;;;;4956926;28;20034;-58
2022/09/29 02:12:44;;;;;;;0.98;0.52;;;18.90;70.50;;;;;;4942408;28;20035;-58
2022/09/29 02:15:13;;;;;;;0.73;0.50;;;18.90;70.60;;;;;;4931400;28;20035;-58
2022/09/29 02:17:41;;;;;;;1.05;0.50;;;18.90;70.50;;;;;;4963508;28;20658;-58
2022/09/29 02:20:09;;;;;;;1.63;0.60;;;18.90;70.50;;;;;;4958306;28;20042;-58
2022/09/29 02:22:35;;;;;;;3.40;0.65;;;18.90;70.50;;;;;;4943376;28;20042;-58
2022/09/29 02:25:00;;;;;;;0.65;0.50;;;18.90;70.60;;;;;;4960388;28;20523;-58
2022/09/29 02:27:28;;;;;;;1.95;0.70;;;18.90;70.60;;;;;;4960926;28;20692;-58
2022/09/29 02:29:54;;;;;;;1.05;0.45;;;18.90;70.50;;;;;;4963811;28;20078;-58
2022/09/29 02:32:19;;;;;;;1.60;0.50;;;18.80;70.50;;;;;;4961305;28;20076;-58
2022/09/29 02:34:47;;;;;;;1.98;0.60;;;18.80;70.40;;;;;;4961207;28;20510;-58
2022/09/29 02:37:40;;;;;;;0.95;0.40;;;18.80;70.40;;;;;;4959722;28;20656;-58
2022/09/29 02:40:26;;;;;;;2.85;0.60;;;18.80;70.40;;;;;;4962172;28;20027;-58
2022/09/29 02:43:07;;;;;;;2.50;0.82;;;18.80;70.50;;;;;;4948054;28;20037;-58
2022/09/29 02:46:00;;;;;;;1.33;0.60;;;18.80;70.40;;;;;;4963530;28;20030;-58
2022/09/29 02:48:59;;;;;;;2.47;0.63;;;18.80;70.40;;;;;;4964681;28;20054;-58
2022/09/29 02:51:36;;;;;;;1.10;0.43;;;18.80;70.50;;;;;;4965115;28;20034;-58
2022/09/29 02:54:23;;;;;;;1.23;0.50;;;18.80;70.40;;;;;;4942444;28;20030;-58
2022/09/29 02:57:06;;;;;;;0.63;0.40;;;18.80;70.40;;;;;;4961492;28;20189;-58
2022/09/29 03:00:05;;;;;;;2.95;0.75;;;18.80;70.40;;;;;;4947240;28;20504;-58
2022/09/29 03:02:31;;;;;;;1.13;0.50;;;18.80;70.50;;;;;;4964522;28;20049;-58
2022/09/29 03:04:57;;;;;;;0.90;0.43;;;18.80;70.60;;;;;;4961840;28;20043;-58
2022/09/29 03:07:23;;;;;;;1.95;0.50;;;18.80;70.50;;;;;;4958802;28;20062;-58
2022/09/29 03:09:49;;;;;;;1.75;0.50;;;18.80;70.40;;;;;;4964315;28;20496;-58
2022/09/29 03:12:14;;;;;;;1.85;0.40;;;18.80;70.50;;;;;;4960471;28;20031;-58
2022/09/29 03:14:40;;;;;;;1.33;0.40;;;18.80;70.40;;;;;;4963493;28;20035;-58
2022/09/29 03:17:06;;;;;;;1.52;0.70;;;18.70;70.40;;;;;;4964691;28;20027;-58
2022/09/29 03:19:31;;;;;;;0.88;0.40;;;18.70;70.40;;;;;;4962355;28;20503;-58
2022/09/29 03:21:57;;;;;;;1.55;0.55;;;18.80;70.50;;;;;;4956915;28;20279;-58
2022/09/29 03:24:22;;;;;;;1.35;0.50;;;18.80;70.50;;;;;;4961870;28;20039;-58
2022/09/29 03:26:48;;;;;;;1.58;0.73;;;18.70;70.40;;;;;;4960241;28;20106;-58
2022/09/29 03:29:14;;;;;;;1.58;0.60;;;18.70;70.40;;;;;;4963154;28;20090;-58
2022/09/29 03:31:39;;;;;;;1.80;0.47;;;18.70;70.50;;;;;;4961120;28;20190;-58
2022/09/29 03:34:05;;;;;;;1.48;0.43;;;18.70;70.40;;;;;;4961869;28;20027;-58
2022/09/29 03:36:31;;;;;;;2.55;0.50;;;18.70;70.40;;;;;;4957276;28;20023;-58
2022/09/29 03:38:56;;;;;;;1.40;0.60;;;18.70;70.40;;;;;;4958160;28;20081;-58
2022/09/29 03:41:22;;;;;;;2.72;0.60;;;18.70;70.40;;;;;;4960725;28;20027;-58
2022/09/29 03:43:48;;;;;;;1.52;0.57;;;18.70;70.50;;;;;;4957423;28;20514;-58
2022/09/29 03:46:13;;;;;;;2.42;0.50;;;18.70;70.50;;;;;;4962128;28;22455;-58
2022/09/29 03:48:40;;;;;;;1.58;0.40;;;18.70;70.40;;;;;;4962915;28;20049;-58
2022/09/29 03:51:05;;;;;;;1.98;0.60;;;18.70;70.50;;;;;;4967903;28;20054;-59
2022/09/29 03:53:34;;;;;;;1.05;0.60;;;18.70;70.50;;;;;;4962604;28;20077;-58
2022/09/29 03:55:59;;;;;;;0.70;0.30;;;18.70;70.40;;;;;;4963796;28;20030;-58
2022/09/29 03:58:25;;;;;;;0.85;0.30;;;18.70;70.40;;;;;;4960609;28;20400;-58
2022/09/29 04:00:51;;;;;;;1.58;0.60;;;18.70;70.40;;;;;;4961747;28;20022;-58
2022/09/29 04:03:16;;;;;;;2.50;0.60;;;18.70;70.50;;;;;;4960057;28;20519;-59
2022/09/29 04:05:44;;;;;;;1.10;0.50;;;18.70;70.50;;;;;;4957587;28;20491;-58
2022/09/29 04:08:10;;;;;;;0.75;0.45;;;18.60;70.40;;;;;;4958820;28;20031;-58
2022/09/29 04:10:36;;;;;;;1.95;0.50;;;18.60;70.50;;;;;;4960780;28;20513;-58
2022/09/29 04:13:01;;;;;;;1.45;0.40;;;18.60;70.40;;;;;;4960046;28;20034;-58
2022/09/29 04:15:27;;;;;;;1.17;0.50;;;18.60;70.40;;;;;;4960102;28;20023;-58
2022/09/29 04:17:53;;;;;;;0.73;0.30;;;18.60;70.40;;;;;;4958863;28;20027;-58
2022/09/29 04:20:20;;;;;;;1.83;0.63;;;18.60;70.40;;;;;;4961233;28;20117;-58
2022/09/29 04:22:47;;;;;;;1.25;0.50;;;18.60;70.50;;;;;;4964698;28;20101;-58
2022/09/29 04:25:13;;;;;;;0.93;0.35;;;18.60;70.40;;;;;;4960394;28;20503;-58
2022/09/29 04:27:38;;;;;;;1.65;0.40;;;18.60;70.40;;;;;;4957385;28;20487;-58
2022/09/29 04:30:05;;;;;;;1.83;0.63;;;18.60;70.40;;;;;;4960895;28;20070;-58
2022/09/29 04:32:31;;;;;;;1.25;0.55;;;18.60;70.40;;;;;;4964275;28;20054;-59
2022/09/29 04:34:57;;;;;;;1.63;0.50;;;18.60;70.50;;;;;;4965337;28;20113;-58
2022/09/29 04:37:23;;;;;;;1.50;0.55;;;18.50;70.40;;;;;;4963138;28;20046;-58
2022/09/29 04:39:48;;;;;;;1.67;0.60;;;18.50;70.40;;;;;;4959307;28;20415;-58
2022/09/29 04:42:14;;;;;;;2.08;0.68;;;18.60;70.50;;;;;;4967347;28;20023;-58
2022/09/29 04:44:39;;;;;;;1.38;0.40;;;18.60;70.40;;;;;;4965237;28;20054;-58
2022/09/29 04:47:05;;;;;;;1.25;0.50;;;18.50;70.40;;;;;;4964012;28;20027;-58
2022/09/29 04:49:31;;;;;;;0.85;0.30;;;18.50;70.40;;;;;;4964572;28;20074;-58
2022/09/29 04:51:56;;;;;;;2.10;0.47;;;18.50;70.30;;;;;;4965267;28;20121;-59
2022/09/29 04:54:25;;;;;;;2.13;0.50;;;18.50;70.40;;;;;;4963719;28;20509;-58
2022/09/29 04:56:50;;;;;;;1.73;0.40;;;18.50;70.30;;;;;;4969044;28;20046;-58
2022/09/29 04:59:16;;;;;;;1.95;0.52;;;18.50;70.40;;;;;;4959953;28;20019;-58
2022/09/29 05:01:42;;;;;;;1.10;0.47;;;18.50;70.30;;;;;;4963089;28;20171;-59
2022/09/29 05:04:09;;;;;;;1.77;0.50;;;18.50;70.40;;;;;;4965953;28;20066;-58
2022/09/29 05:06:38;;;;;;;2.08;0.55;;;18.50;70.30;;;;;;4966177;28;20031;-58
2022/09/29 05:09:04;;;;;;;2.10;0.55;;;18.50;70.30;;;;;;4961058;28;20032;-58
2022/09/29 05:11:30;;;;;;;1.52;0.43;;;18.50;70.30;;;;;;4968973;28;20054;-59
2022/09/29 05:13:56;;;;;;;4.65;0.45;;;18.50;70.30;;;;;;4967383;28;20065;-58
2022/09/29 05:16:21;;;;;;;1.60;0.52;;;18.50;70.30;;;;;;4967605;28;20081;-58
2022/09/29 05:18:47;;;;;;;1.35;0.40;;;18.50;70.30;;;;;;4965176;28;20512;-58
2022/09/29 05:21:13;;;;;;;1.95;0.50;;;18.50;70.40;;;;;;4962605;28;20579;-58
2022/09/29 05:23:38;;;;;;;1.88;0.50;;;18.50;70.30;;;;;;4966276;28;20691;-58
2022/09/29 05:26:05;;;;;;;0.90;0.40;;;18.50;70.40;;;;;;4964130;28;20376;-58
2022/09/29 05:28:31;;;;;;;0.60;0.30;;;18.40;70.30;;;;;;4961593;28;20027;-58
2022/09/29 05:31:03;;;;;;;1.75;0.40;;;18.40;70.30;;;;;;4969506;28;20109;-58
2022/09/29 05:33:28;;;;;;;1.85;0.40;;;18.40;70.30;;;;;;4962484;28;20023;-58
2022/09/29 05:35:54;;;;;;;1.33;0.50;;;18.40;70.30;;;;;;4969249;28;20089;-58
2022/09/29 05:38:21;;;;;;;1.60;0.52;;;18.40;70.20;;;;;;4961182;28;20041;-58
2022/09/29 05:40:47;;;;;;;0.80;0.50;;;18.40;70.20;;;;;;4964187;28;20023;-58
2022/09/29 05:43:13;;;;;;;1.52;0.55;;;18.40;70.30;;;;;;4968139;28;20035;-59
2022/09/29 05:45:39;;;;;;;0.65;0.35;;;18.40;70.30;;;;;;4950476;28;20486;-58
2022/09/29 05:48:05;;;;;;;1.50;0.50;;;18.40;70.30;;;;;;4974538;28;20034;-59
2022/09/29 05:50:31;;;;;;;1.02;0.35;;;18.40;70.30;;;;;;4965507;28;20152;-58
2022/09/29 05:53:04;;;;;;;0.65;0.43;;;18.40;70.20;;;;;;4965967;28;20025;-58
2022/09/29 05:55:30;;;;;;;0.70;0.30;;;18.40;70.30;;;;;;4964821;28;20026;-58
2022/09/29 05:57:55;;;;;;;1.88;0.55;;;18.40;70.20;;;;;;4964622;28;20101;-58
2022/09/29 06:00:21;;;;;;;1.33;0.40;;;18.40;70.20;;;;;;4964720;28;20117;-58
2022/09/29 06:02:47;;;;;;;0.65;0.40;;;18.40;70.80;;;;;;4976672;28;20783;-58
2022/09/29 06:05:12;;;;;;;1.30;0.35;;;18.40;70.20;;;;;;4958422;28;20035;-58
2022/09/29 06:07:38;;;;;;;2.13;0.50;;;18.30;70.20;;;;;;4961791;28;20109;-58
2022/09/29 06:10:04;;;;;;;1.63;0.50;;;18.30;70.20;;;;;;4969030;28;20062;-58
2022/09/29 06:12:36;;;;;;;0.65;0.40;;;18.30;70.20;;;;;;4963921;28;20503;-59
2022/09/29 06:15:05;;;;;;;0.65;0.43;;;18.30;70.30;;;;;;4965579;28;20638;-59
2022/09/29 06:17:31;;;;;;;2.03;0.52;;;18.30;70.20;;;;;;4984079;28;20472;-59
2022/09/29 06:19:57;;;;;;;3.38;0.60;;;18.30;70.20;;;;;;4967875;28;20031;-58
2022/09/29 06:22:23;;;;;;;1.58;0.30;;;18.30;70.20;;;;;;4958618;28;20384;-58
2022/09/29 06:24:49;;;;;;;1.70;0.60;;;18.30;70.20;;;;;;4963688;28;20050;-58
2022/09/29 06:27:16;;;;;;;1.23;0.40;;;18.30;70.20;;;;;;4958192;28;20023;-58
2022/09/29 06:29:46;;;;;;;1.70;0.50;;;18.30;70.20;;;;;;4963328;28;20077;-59
2022/09/29 06:32:16;;;;;;;1.60;0.60;;;18.30;70.20;;;;;;4958647;28;20038;-58
2022/09/29 06:37:36;;;;;;;3.17;0.40;;;18.30;70.20;;;;;;4958462;28;20097;-59
2022/09/29 06:40:03;;;;;;;1.58;0.40;;;18.30;70.20;;;;;;4960045;28;20019;-59
2022/09/29 06:42:29;;;;;;;2.65;0.52;;;18.20;70.20;;;;;;4963255;28;20059;-59
2022/09/29 06:44:54;;;;;;;0.95;0.43;;;18.20;70.10;;;;;;4958091;28;20070;-59
2022/09/29 06:47:20;;;;;;;0.68;0.40;;;18.20;70.10;;;;;;4960748;28;20027;-59
2022/09/29 06:49:46;;;;;;;0.57;0.32;;;18.20;70.10;;;;;;4964321;28;20023;-59
2022/09/29 06:52:11;;;;;;;0.70;0.30;;;18.20;70.20;;;;;;4962901;28;20106;-59
2022/09/29 06:54:37;;;;;;;0.82;0.40;;;18.20;70.20;;;;;;4960441;28;20122;-59
2022/09/29 06:57:03;;;;;;;0.63;0.40;;;18.20;70.20;;;;;;4961361;28;20034;-59
2022/09/29 06:59:28;;;;;;;3.13;0.63;;;18.20;70.20;;;;;;4959620;28;20030;-59
2022/09/29 07:01:54;;;;;;;1.48;0.43;;;18.20;70.20;;;;;;4957871;28;20034;-59
2022/09/29 07:04:20;;;;;;;1.38;0.40;;;18.20;70.20;;;;;;4963095;28;20487;-59
2022/09/29 07:06:45;;;;;;;0.70;0.30;;;18.20;70.10;;;;;;4960478;28;20023;-59
2022/09/29 07:09:14;;;;;;;1.55;0.47;;;18.20;70.10;;;;;;4961115;28;20030;-59
2022/09/29 07:11:45;;;;;;;2.38;0.50;;;18.20;70.10;;;;;;4965698;28;20030;-58
2022/09/29 07:14:14;;;;;;;0.52;0.40;;;18.20;70.20;;;;;;4964031;28;20487;-59
2022/09/29 07:16:40;;;;;;;2.85;0.50;;;18.20;70.10;;;;;;4967481;28;20786;-59
2022/09/29 07:19:05;;;;;;;1.65;0.30;;;18.20;70.20;;;;;;4967056;28;20031;-59
2022/09/29 07:21:31;;;;;;;0.82;0.30;;;18.20;70.10;;;;;;4962294;28;20030;-59
2022/09/29 07:23:57;;;;;;;1.70;0.57;;;18.20;70.20;;;;;;4961897;28;20117;-59
2022/09/29 07:26:22;;;;;;;1.58;0.40;;;18.20;70.20;;;;;;4961358;28;20102;-59
2022/09/29 07:28:48;;;;;;;0.45;0.40;;;18.10;70.20;;;;;;4958986;28;20518;-59
2022/09/29 07:31:18;;;;;;;1.10;0.40;;;18.20;70.20;;;;;;4977773;28;20073;-59
2022/09/29 07:33:44;;;;;;;1.05;0.40;;;18.20;70.20;;;;;;4964950;28;20084;-59
2022/09/29 07:36:15;;;;;;;2.70;0.57;;;18.20;70.20;;;;;;4961988;28;20043;-59
2022/09/29 07:38:41;;;;;;;1.50;0.20;;;18.20;70.20;;;;;;4958531;28;20440;-59
2022/09/29 07:41:09;;;;;;;1.05;0.30;;;18.20;70.20;;;;;;4963496;28;20041;-59
2022/09/29 07:43:35;;;;;;;0.75;0.40;;;18.20;70.20;;;;;;4965497;28;20031;-58
2022/09/29 07:46:00;;;;;;;1.42;0.43;;;18.20;70.20;;;;;;4962607;28;20514;-59
2022/09/29 07:48:26;;;;;;;0.47;0.28;;;18.20;70.10;;;;;;4964154;28;20019;-59
2022/09/29 07:50:52;;;;;;;1.52;0.30;;;18.20;70.20;;;;;;4963549;28;20088;-59
2022/09/29 07:53:18;;;;;;;2.13;0.60;;;18.20;70.10;;;;;;4964672;28;20035;-58
2022/09/29 07:55:43;;;;;;;1.55;0.30;;;18.20;70.10;;;;;;4957937;28;21070;-58
2022/09/29 07:58:09;;;;;;;0.85;0.40;;;18.20;70.10;;;;;;4969231;28;20030;-59
2022/09/29 08:00:35;;;;;;;1.95;0.40;;;18.20;70.20;;;;;;4964637;28;20069;-59
2022/09/29 08:03:01;;;;;;;1.73;0.30;;;18.20;70.20;;;;;;4958156;28;20027;-59
2022/09/29 08:05:27;;;;;;;1.42;0.38;;;18.20;70.10;;;;;;4961682;28;20134;-59
2022/09/29 08:07:53;;;;;;;0.82;0.40;;;18.20;70.20;;;;;;4962166;28;20091;-59
2022/09/29 08:10:19;;;;;;;1.08;0.50;;;18.20;70.20;;;;;;4966012;28;20129;-59
2022/09/29 08:12:47;;;;;;;0.90;0.40;;;18.20;70.10;;;;;;4963963;28;20134;-56
2022/09/29 08:15:12;;;;;;;0.98;0.45;;;18.10;70.10;;;;;;4959585;28;20683;-59
2022/09/29 08:17:38;;;;;;;2.40;0.50;;;18.20;70.20;;;;;;4971830;28;20031;-59
2022/09/29 08:20:04;;;;;;;1.50;0.40;;;18.10;70.20;;;;;;4959851;28;20051;-58
2022/09/29 08:22:31;;;;;;;1.55;0.45;;;18.10;70.10;;;;;;4967253;28;20098;-58
2022/09/29 08:24:57;;;;;;;0.93;0.40;;;18.10;70.10;;;;;;4969375;28;20066;-58
2022/09/29 08:27:23;;;;;;;2.88;0.50;;;18.10;70.10;;;;;;4967531;28;20110;-58
2022/09/29 08:29:49;;;;;;;1.58;0.50;;;18.10;70.10;;;;;;4964488;28;20519;-58
2022/09/29 08:32:17;;;;;;;2.55;0.68;;;18.10;70.10;;;;;;4961107;28;20027;-58
2022/09/29 08:34:43;;;;;;;2.50;0.65;;;18.10;70.20;;;;;;4967954;28;20395;-58
2022/09/29 08:37:13;;;;;;;4.90;0.57;;;18.10;70.10;;;;;;4965235;28;20475;-57
2022/09/29 08:39:39;;;;;;;1.83;0.40;;;18.10;70.10;;;;;;4963479;28;20105;-57
2022/09/29 08:42:21;;;;;;;1.15;0.50;;;18.10;70.10;;;;;;4966049;28;20029;-57
2022/09/29 08:44:57;;;;;;;0.98;0.40;;;18.10;70.40;;;;;;4966173;28;20035;-57
2022/09/29 08:47:31;;;;;;;4.72;0.82;;;18.20;70.40;;;;;;4963727;28;20022;-58
2022/09/29 08:50:02;;;;;;;2.95;0.55;;;18.20;70.90;;;;;;4967364;28;20054;-58
2022/09/29 08:52:34;;;;;;;4.97;0.73;;;18.20;70.80;;;;;;4954250;28;20026;-58
2022/09/29 08:55:42;;;;;;;5.30;0.70;;;18.20;70.90;;;;;;4947921;28;20035;-57
2022/09/29 08:58:13;;;;;;;3.50;0.70;;;18.20;71.10;;;;;;4966551;28;20046;-58
2022/09/29 09:01:08;;;;;;;3.15;0.60;;;18.20;71.30;;;;;;4965027;28;20038;-57
2022/09/29 09:04:04;;;;;;;3.28;0.70;;;18.20;71.10;;;;;;4966902;28;20101;-57
2022/09/29 09:06:33;;;;;;;2.70;0.73;;;18.20;71.30;;;;;;4961001;28;20039;-57
2022/09/29 09:09:27;;;;;;;5.43;0.80;;;18.30;71.90;;;;;;4963641;28;20105;-58
2022/09/29 09:12:17;;;;;;;9.30;0.93;;;18.30;71.60;;;;;;4958774;28;20588;-58
2022/09/29 09:14:55;;;;;;;3.85;0.88;;;18.30;71.60;;;;;;4959994;28;20389;-58
2022/09/29 09:17:58;;;;;;;5.03;0.88;;;18.40;71.60;;;;;;4960129;28;20031;-57
2022/09/29 09:20:35;;;;;;;4.88;0.98;;;18.40;71.60;;;;;;4961640;28;20113;-57
2022/09/29 09:23:32;;;;;;;6.00;0.90;;;18.40;71.90;;;;;;4943424;28;20049;-58
2022/09/29 09:26:02;;;;;;;4.55;0.95;;;18.40;72.00;;;;;;4959286;28;20171;-58
2022/09/29 09:28:47;;;;;;;5.88;1.20;;;18.40;72.30;;;;;;4958586;28;20038;-57
2022/09/29 09:31:20;;;;;;;;;;;18.40;72.10;;;;;;4964740;28;20079;-57
2022/09/29 09:33:55;;;;;;;5.43;1.25;;;18.40;71.90;;;;;;4957359;28;19929;-57
2022/09/29 09:36:26;;;;;;;8.10;1.50;;;18.30;71.80;;;;;;4958003;28;20038;-57
2022/09/29 09:39:05;;;;;;;6.43;1.30;;;18.30;71.90;;;;;;4959167;28;20035;-57
2022/09/29 09:41:31;;;;;;;6.25;1.33;;;18.30;71.70;;;;;;4957508;28;20391;-57
2022/09/29 09:44:32;;;;;;;2.85;0.80;;;18.30;71.60;;;;;;4963008;28;20042;-57
2022/09/29 09:47:19;;;;;;;10.90;1.40;;;18.30;71.70;;;;;;4959554;28;20033;-57
2022/09/29 09:49:46;;;;;;;6.28;0.95;;;18.30;71.70;;;;;;4938366;29;20047;-57
2022/09/29 09:52:21;;;;;;;4.78;0.90;;;18.30;71.60;;;;;;4931466;29;20035;-58
2022/09/29 09:54:51;;;;;;;6.40;1.10;;;18.30;71.70;;;;;;4937074;28;20241;-57
2022/09/29 09:57:43;;;;;;;3.75;1.00;;;18.30;71.70;;;;;;4929630;29;20027;-57
2022/09/29 10:00:15;;;;;;;4.53;0.95;;;18.20;71.50;;;;;;4933870;29;20027;-57
2022/09/29 10:02:50;;;;;;;5.53;1.20;;;18.30;71.60;;;;;;4930519;29;20039;-58
2022/09/29 10:05:18;;;;;;;9.25;1.30;;;18.20;71.60;;;;;;4946897;29;20043;-57
2022/09/29 10:07:44;;;;;;;6.18;1.05;;;18.20;71.50;;;;;;4946726;29;20039;-58
2022/09/29 10:10:22;;;;;;;5.38;1.00;;;18.20;71.50;;;;;;4930564;29;20040;-57
2022/09/29 10:13:09;;;;;;;4.93;1.20;;;18.20;71.50;;;;;;4929301;29;20042;-57
2022/09/29 10:16:06;;;;;;;8.30;1.23;;;18.20;71.50;;;;;;4944733;29;20032;-57
2022/09/29 10:18:45;;;;;;;5.15;1.20;;;18.30;71.50;;;;;;4930008;29;20031;-57
2022/09/29 10:21:42;;;;;;;6.45;1.23;;;18.20;71.40;;;;;;4942735;29;20579;-57
2022/09/29 10:24:29;;;;;;;8.35;1.40;;;18.20;71.30;;;;;;4943079;29;20046;-58
2022/09/29 10:26:56;;;;;;;6.50;1.23;;;18.20;71.30;;;;;;4957277;28;20065;-57
2022/09/29 10:29:27;;;;;;;7.75;1.33;;;18.20;71.30;;;;;;4938338;28;20042;-57
2022/09/29 10:32:08;;;;;;;5.13;1.23;;;18.20;71.30;;;;;;4945327;28;20039;-57
2022/09/29 10:34:41;;;;;;;6.13;1.13;;;18.20;71.30;;;;;;4962992;28;20106;-57
2022/09/29 10:37:24;;;;;;;4.88;1.17;;;18.20;71.30;;;;;;4960913;28;20015;-57
2022/09/29 10:39:50;;;;;;;4.85;0.80;;;18.20;71.20;;;;;;4947349;28;20023;-57
2022/09/29 10:42:22;;;;;;;9.52;1.63;;;18.20;71.30;;;;;;4962238;28;20034;-57
2022/09/29 10:44:59;;;;;;;6.95;1.25;;;18.20;71.30;;;;;;4958044;28;20031;-57
2022/09/29 10:47:25;;;;;;;8.77;1.42;;;18.20;71.20;;;;;;4963476;28;20109;-57
2022/09/29 10:50:20;;;;;;;5.80;1.30;;;18.20;71.10;;;;;;4958475;28;20111;-57
2022/09/29 10:52:53;;;;;;;5.70;1.25;;;18.20;71.20;;;;;;4956779;28;20027;-57
2022/09/29 10:55:23;;;;;;;5.95;1.27;;;18.20;71.20;;;;;;4957389;28;20496;-57
2022/09/29 10:57:50;;;;;;;5.65;1.08;;;18.20;71.10;;;;;;4946450;28;20033;-57
2022/09/29 11:00:30;;;;;;;4.95;1.02;;;18.20;71.10;;;;;;4955901;28;20034;-57
2022/09/29 11:03:13;;;;;;;4.13;0.90;;;18.20;71.10;;;;;;4960480;28;20044;-57
2022/09/29 11:05:39;;;;;;;5.57;0.98;;;18.20;71.20;;;;;;4948027;28;20662;-57
2022/09/29 11:08:04;;;;;;;7.82;1.48;;;18.20;71.10;;;;;;4940352;28;20114;-57
2022/09/29 11:10:35;;;;;;;8.65;1.60;;;18.20;71.10;;;;;;4938000;28;20035;-57
2022/09/29 11:13:23;;;;;;;6.22;1.25;;;18.20;71.10;;;;;;4959443;28;20089;-57
2022/09/29 11:15:49;;;;;;;5.90;0.95;;;18.20;71.10;;;;;;4964431;28;20031;-57
2022/09/29 11:18:24;;;;;;;4.53;1.02;;;18.20;71.10;;;;;;4957291;28;20033;-57
2022/09/29 11:20:55;;;;;;;6.53;1.20;;;18.20;71.10;;;;;;4956818;28;20085;-57
2022/09/29 11:23:34;;;;;;;5.85;1.30;;;18.20;72.10;;;;;;4939826;28;20034;-57
2022/09/29 11:26:12;;;;;;;4.72;0.98;;;18.20;71.10;;;;;;4964221;28;20089;-57
2022/09/29 11:28:37;;;;;;;5.80;1.30;;;18.20;71.00;;;;;;4964418;28;20041;-57
2022/09/29 11:31:12;;;;;;;5.32;1.17;;;18.20;71.10;;;;;;4960787;28;20051;-57
2022/09/29 11:34:03;;;;;;;5.53;1.23;;;18.20;71.00;;;;;;4960354;28;20027;-57
2022/09/29 11:37:14;;;;;;;5.75;1.33;;;18.20;71.10;;;;;;4957616;28;20055;-57
2022/09/29 11:39:59;;;;;;;4.22;1.20;;;18.20;71.00;;;;;;4959970;28;20118;-57
2022/09/29 11:42:55;;;;;;;5.60;1.10;;;18.20;71.00;;;;;;4961469;28;20029;-57
2022/09/29 11:45:23;;;;;;;6.55;1.20;;;18.20;71.00;;;;;;4954877;28;20381;-57
2022/09/29 11:47:55;;;;;;;6.43;1.20;;;18.30;70.80;;;;;;4938846;28;20561;-57
2022/09/29 11:50:30;;;;;;;6.63;1.58;;;18.40;70.90;;;;;;4962826;28;20061;-57
2022/09/29 11:53:21;;;;;;;6.07;1.33;;;18.50;70.70;;;;;;4954810;28;20036;-57
2022/09/29 11:56:16;;;;;;;5.63;1.20;;;18.60;70.60;;;;;;4959889;28;20043;-57
2022/09/29 11:58:52;;;;;;;4.68;1.00;;;18.60;70.50;;;;;;4965267;28;20042;-57
2022/09/29 12:02:06;;;;;;;7.28;1.48;;;18.70;70.30;;;;;;4942415;28;20142;-58
2022/09/29 12:04:38;;;;;;;6.95;1.40;;;18.70;70.10;;;;;;4940375;29;20036;-57
2022/09/29 12:07:16;;;;;;;5.60;1.50;;;18.80;71.00;;;;;;4938849;29;20075;-57
2022/09/29 12:09:53;;;;;;;8.88;1.50;;;18.90;69.90;;;;;;4933223;29;20067;-57
2022/09/29 12:12:28;;;;;;;6.40;1.30;;;18.90;69.80;;;;;;4944193;28;20043;-58
2022/09/29 12:15:15;;;;;;;5.60;1.25;;;18.90;69.50;;;;;;4942861;29;20448;-57
2022/09/29 12:17:43;;;;;;;6.25;1.33;;;18.90;69.50;;;;;;4938699;28;20082;-58
2022/09/29 12:20:23;;;;;;;5.38;1.10;;;18.90;70.50;;;;;;4946160;29;20046;-57
2022/09/29 12:22:49;;;;;;;7.00;1.48;;;18.90;69.40;;;;;;4924956;29;20788;-57
2022/09/29 12:25:21;;;;;;;7.65;1.48;;;19.00;69.20;;;;;;4931863;29;20070;-57
2022/09/29 12:27:47;;;;;;;8.48;1.27;;;18.90;69.10;;;;;;4938794;29;20142;-57
2022/09/29 12:30:28;;;;;;;6.97;1.55;;;19.00;69.00;;;;;;4930366;29;20572;-57
2022/09/29 12:32:59;;;;;;;8.70;1.70;;;18.90;68.90;;;;;;4938713;29;20086;-57
2022/09/29 12:35:59;;;;;;;6.68;1.10;;;18.90;68.80;;;;;;4941975;29;20032;-58
2022/09/29 12:38:34;;;;;;;7.22;1.55;;;18.90;68.80;;;;;;4939512;28;20688;-58
2022/09/29 12:41:20;;;;;;;6.57;1.20;;;18.90;68.80;;;;;;4943663;28;20443;-57
2022/09/29 12:44:01;;;;;;;6.72;1.38;;;18.90;68.80;;;;;;4964436;28;20043;-57
2022/09/29 12:46:53;;;;;;;7.32;1.50;;;18.80;68.70;;;;;;4964722;28;20063;-57
2022/09/29 12:49:26;;;;;;;6.57;1.20;;;18.80;68.60;;;;;;4963552;28;20038;-57
2022/09/29 12:51:52;;;;;;;6.18;1.50;;;18.80;68.70;;;;;;4960027;28;20027;-58
2022/09/29 12:54:38;;;;;;;3.35;1.10;;;18.80;68.70;;;;;;4958035;28;20042;-58
2022/09/29 12:57:07;;;;;;;7.35;1.20;;;18.80;68.80;;;;;;4957080;28;20026;-57
2022/09/29 12:59:42;;;;;;;6.18;1.20;;;18.70;68.80;;;;;;4963298;28;20434;-58
2022/09/29 13:02:32;;;;;;;6.47;1.45;;;18.70;68.70;;;;;;4961324;28;20022;-57
2022/09/29 13:05:39;;;;;;;4.50;1.27;;;18.70;68.70;;;;;;4963931;28;20170;-58
2022/09/29 13:08:26;;;;;;;7.70;1.40;;;18.70;68.80;;;;;;4893200;29;20044;-57
2022/09/29 13:11:24;;;;;;;7.40;1.30;;;18.70;68.80;;;;;;4891523;29;20056;-57
2022/09/29 13:14:14;;;;;;;2.47;1.08;;;18.70;68.80;;;;;;4867447;29;20406;-57
2022/09/29 13:17:11;;;;;;;6.35;1.40;;;18.60;68.80;;;;;;4870028;29;20636;-57